Overview Statistics Trail Chart Weather Telemetry Raw packets
 

This is the latest recevied weather packets stored in our database for station/object K7KAR-2. If no packets are shown the sender has not sent any weather packets the latest 10 day(s).

<< 89 90 91 92 93 94 95 >>
Time Temp. Humidity Pressure Rain* Wind** Luminosity Snow
1787955089 22.22° C 56% 1014.3 hPa 0 mm - 104 W/m² -
1787954785 22.22° C 55% 1014.4 hPa 0 mm - 101 W/m² -
1787954481 22.78° C 56% 1014.6 hPa 0 mm - 100 W/m² -
1787954180 22.78° C 56% 1014.5 hPa 0 mm - 104 W/m² -
1787953874 22.78° C 55% 1014.6 hPa 0 mm - 106 W/m² -
1787953569 22.22° C 55% 1014.7 hPa 0 mm - 109 W/m² -
1787953269 22.22° C 55% 1014.6 hPa 0 mm - 111 W/m² -
1787952966 22.22° C 53% 1014.7 hPa 0 mm - 112 W/m² -
1787952661 22.22° C 53% 1015 hPa 0 mm - 109 W/m² -
1787952360 22.78° C 52% 1014.8 hPa 0 mm - 102 W/m² -
1787952057 22.78° C 48% 1014.6 hPa 0 mm - 111 W/m² -
1787951756 22.78° C 45% 1014.5 hPa 0 mm - 112 W/m² -
1787951452 22.78° C 46% 1014.5 hPa 0 mm - 101 W/m² -
1787951148 22.78° C 47% 1014.5 hPa 0 mm - 99 W/m² -
1787950843 22.78° C 47% 1014.6 hPa 0 mm - 106 W/m² -
1787950538 22.78° C 48% 1014.8 hPa 0 mm - 126 W/m² -
1787950235 22.78° C 47% 1014.5 hPa 0 mm - 139 W/m² -
1787949939 23.33° C 48% 1015 hPa 0 mm - 162 W/m² -
1787949626 23.33° C 51% 1015.6 hPa 0 mm - 175 W/m² -
1787949326 23.33° C 49% 1015.5 hPa 0 mm - 189 W/m² -
1787949021 23.33° C 47% 1015.4 hPa 0 mm - 198 W/m² -
1787948716 23.33° C 48% 1015.5 hPa 0 mm - 196 W/m² -
1787948411 22.78° C 49% 1015.5 hPa 0 mm - 175 W/m² -
1787948106 22.78° C 51% 1015.7 hPa 0 mm - 176 W/m² -
1787947800 22.22° C 53% 1016 hPa 0 mm - 194 W/m² -

* Rain latest hour (hover to see other rain measurements)
** Current wind speed in m/s (hover to see current wind gust speed)